Time;durP1;ratioP1;P1;durP2;ratioP2;P2;SDS_P1;SDS_P2;PMS_P1;PMS_P2;Temp;Humidity;BMP_temperature;BMP_pressure;BME280_temperature;BME280_humidity;BME280_pressure;Samples;Min_cycle;Max_cycle;Signal;HPM_P1;HPM_P2
2021/12/30 00:01:43;;;;;;;1.63;1.53;;;;;;;8.34;100.00;97631.31;4932587;29;20226;-71
2021/12/30 00:04:13;;;;;;;2.70;2.50;;;;;;;8.39;100.00;97628.22;4931973;29;20231;-71
2021/12/30 00:06:41;;;;;;;3.13;2.93;;;;;;;8.42;100.00;97624.41;4930878;29;20212;-70
2021/12/30 00:09:11;;;;;;;1.87;1.70;;;;;;;8.54;100.00;97634.56;4935388;28;20235;-71
2021/12/30 00:11:39;;;;;;;2.17;2.07;;;;;;;8.56;100.00;97636.22;4935128;29;20219;-70
2021/12/30 00:14:08;;;;;;;1.57;1.57;;;;;;;8.50;100.00;97651.72;4932635;29;20398;-70
2021/12/30 00:16:36;;;;;;;1.50;1.50;;;;;;;8.60;100.00;97653.41;4934053;29;20216;-70
2021/12/30 00:19:04;;;;;;;1.33;1.30;;;;;;;8.60;100.00;97642.84;4934299;29;20235;-70
2021/12/30 00:21:33;;;;;;;1.93;1.83;;;;;;;8.61;100.00;97647.13;4931158;29;20207;-70
2021/12/30 00:24:01;;;;;;;2.00;1.90;;;;;;;8.62;100.00;97648.78;4933394;29;20239;-70
2021/12/30 00:26:30;;;;;;;2.17;2.07;;;;;;;8.59;100.00;97655.22;4935034;29;20215;-71
2021/12/30 00:28:58;;;;;;;1.50;1.50;;;;;;;8.66;100.00;97661.53;4934873;29;20227;-71
2021/12/30 00:31:26;;;;;;;3.10;2.90;;;;;;;8.62;100.00;97667.28;4931485;29;20518;-70
2021/12/30 00:33:54;;;;;;;1.57;1.53;;;;;;;8.71;100.00;97666.31;4933430;29;20572;-70
2021/12/30 00:36:22;;;;;;;2.83;2.20;;;;;;;8.78;100.00;97675.28;4934386;29;20204;-70
2021/12/30 00:38:51;;;;;;;1.67;1.60;;;;;;;8.75;100.00;97682.69;4934587;29;20238;-69
2021/12/30 00:41:19;;;;;;;2.87;2.67;;;;;;;8.78;100.00;97690.28;4930331;29;20211;-70
2021/12/30 00:43:47;;;;;;;2.17;2.07;;;;;;;8.85;100.00;97695.78;4935990;29;20706;-69
2021/12/30 00:46:15;;;;;;;1.27;1.27;;;;;;;8.91;100.00;97698.59;4931606;29;20211;-70
2021/12/30 00:48:43;;;;;;;1.83;1.73;;;;;;;8.91;100.00;97695.97;4930450;29;20650;-70
2021/12/30 00:51:11;;;;;;;1.80;1.70;;;;;;;8.97;100.00;97707.69;4931800;29;20208;-71
2021/12/30 00:53:41;;;;;;;2.43;2.33;;;;;;;8.96;100.00;97708.69;4934319;29;20212;-71
2021/12/30 00:56:10;;;;;;;1.47;1.37;;;;;;;9.10;100.00;97709.88;4933048;29;20300;-70
2021/12/30 00:58:38;;;;;;;3.17;2.97;;;;;;;9.09;100.00;97708.22;4932813;29;20366;-71
2021/12/30 01:01:06;;;;;;;1.80;1.70;;;;;;;9.13;100.00;97704.25;4931723;29;20208;-70
2021/12/30 01:03:35;;;;;;;1.27;1.27;;;;;;;9.17;100.00;97695.00;4933098;29;20226;-71
2021/12/30 01:06:03;;;;;;;2.33;2.23;;;;;;;9.20;100.00;97699.97;4933637;29;20211;-71
2021/12/30 01:08:32;;;;;;;1.40;1.40;;;;;;;9.37;100.00;97710.59;4930146;29;20232;-71
2021/12/30 01:11:05;;;;;;;1.37;1.33;;;;;;;9.45;100.00;97721.19;4931798;29;20211;-71
2021/12/30 01:13:39;;;;;;;1.57;1.47;;;;;;;9.37;100.00;97726.47;4931738;29;20583;-71
2021/12/30 01:16:16;;;;;;;1.60;1.50;;;;;;;9.47;100.00;97724.47;4933717;29;20770;-71
2021/12/30 01:18:56;;;;;;;1.60;1.60;;;;;;;9.47;100.00;97732.41;4928747;29;20231;-71
2021/12/30 01:21:25;;;;;;;1.50;1.40;;;;;;;9.49;100.00;97729.63;4926605;29;20439;-71
2021/12/30 01:23:53;;;;;;;2.27;2.17;;;;;;;9.58;100.00;97730.44;4930306;29;20263;-71
2021/12/30 01:26:21;;;;;;;1.40;1.40;;;;;;;9.66;100.00;97744.50;4939925;29;20241;-70
2021/12/30 01:28:51;;;;;;;1.87;1.77;;;;;;;9.65;100.00;97734.06;4930660;29;20419;-69
2021/12/30 01:31:19;;;;;;;1.80;1.70;;;;;;;9.68;100.00;97747.81;4930550;29;20303;-69
2021/12/30 01:33:48;;;;;;;2.20;1.63;;;;;;;9.72;100.00;97743.03;4930859;29;20207;-70
2021/12/30 01:36:16;;;;;;;1.53;1.40;;;;;;;9.75;100.00;97744.50;4928828;29;20229;-69
2021/12/30 01:38:45;;;;;;;1.10;1.10;;;;;;;9.67;100.00;97748.81;4926805;29;20242;-71
2021/12/30 01:41:13;;;;;;;1.30;1.30;;;;;;;9.68;100.00;97753.09;4931268;29;20226;-69
2021/12/30 01:43:41;;;;;;;0.90;0.90;;;;;;;9.70;100.00;97752.97;4928494;29;20565;-71
2021/12/30 01:46:12;;;;;;;1.40;1.40;;;;;;;9.63;100.00;97758.06;4927901;29;20272;-71
2021/12/30 01:48:41;;;;;;;1.77;1.67;;;;;;;9.65;100.00;97757.88;4928902;29;20244;-71
2021/12/30 01:51:09;;;;;;;1.33;1.30;;;;;;;9.67;100.00;97769.97;4930403;29;20207;-71
2021/12/30 01:53:38;;;;;;;1.43;1.33;;;;;;;9.60;100.00;97779.56;4927772;29;20208;-70
2021/12/30 01:56:07;;;;;;;1.00;1.00;;;;;;;9.58;100.00;97778.91;4928062;29;20648;-71
2021/12/30 01:58:36;;;;;;;1.53;1.47;;;;;;;9.63;100.00;97768.66;4933146;29;20223;-70
2021/12/30 02:01:04;;;;;;;1.33;1.33;;;;;;;9.59;100.00;97771.78;4927985;29;20208;-71
2021/12/30 02:03:34;;;;;;;1.03;1.03;;;;;;;9.47;100.00;97774.75;4941389;29;20294;-70
2021/12/30 02:06:03;;;;;;;1.43;1.33;;;;;;;9.52;100.00;97796.25;4932272;29;20716;-70
2021/12/30 02:08:31;;;;;;;1.03;1.03;;;;;;;9.50;100.00;97798.22;4933513;29;20227;-70
2021/12/30 02:10:59;;;;;;;1.00;1.00;;;;;;;9.55;100.00;97816.25;4935631;29;20759;-71
2021/12/30 02:13:27;;;;;;;1.07;1.07;;;;;;;9.51;100.00;97820.22;4932075;29;20210;-70
2021/12/30 02:16:00;;;;;;;1.00;1.00;;;;;;;9.47;100.00;97822.34;4928004;29;20219;-71
2021/12/30 02:18:28;;;;;;;1.83;1.00;;;;;;;9.60;100.00;97827.19;4930097;29;20228;-70
2021/12/30 02:20:59;;;;;;;1.13;1.13;;;;;;;9.63;100.00;97821.56;4932211;29;20212;-70
2021/12/30 02:23:28;;;;;;;0.80;0.80;;;;;;;9.56;100.00;97834.59;4932161;29;20223;-71
2021/12/30 02:25:59;;;;;;;1.23;1.10;;;;;;;9.72;100.00;97832.16;4926345;29;20866;-71
2021/12/30 02:28:29;;;;;;;0.90;0.90;;;;;;;9.73;100.00;97831.16;4928589;29;20614;-70
2021/12/30 02:30:59;;;;;;;0.80;0.80;;;;;;;9.66;100.00;97839.75;4927291;29;20376;-70
2021/12/30 02:33:27;;;;;;;1.10;1.10;;;;;;;9.66;100.00;97847.69;4930861;29;20624;-70
2021/12/30 02:35:57;;;;;;;2.43;1.20;;;;;;;9.70;100.00;97849.03;4933092;29;20209;-70
2021/12/30 02:38:26;;;;;;;1.03;0.93;;;;;;;9.79;100.00;97857.81;4931014;29;20479;-71
2021/12/30 02:40:56;;;;;;;0.93;0.93;;;;;;;9.82;100.00;97867.25;4931744;29;20219;-71
2021/12/30 02:43:26;;;;;;;0.93;0.93;;;;;;;9.82;100.00;97864.59;4930973;29;20688;-71
2021/12/30 02:45:55;;;;;;;1.97;1.10;;;;;;;9.77;100.00;97864.25;4933335;29;20576;-71
2021/12/30 02:48:24;;;;;;;1.40;1.00;;;;;;;9.80;100.00;97872.72;4930007;29;20218;-71
2021/12/30 02:50:56;;;;;;;1.07;1.07;;;;;;;9.73;100.00;97887.59;4926772;29;20230;-71
2021/12/30 02:53:25;;;;;;;1.03;1.03;;;;;;;9.74;100.00;97881.31;4929878;29;20208;-71
2021/12/30 02:55:54;;;;;;;1.70;1.37;;;;;;;9.68;100.00;97884.59;4929871;29;20236;-71
2021/12/30 02:58:23;;;;;;;1.00;1.00;;;;;;;9.81;100.00;97877.00;4926516;29;20293;-70
2021/12/30 03:00:56;;;;;;;1.13;1.13;;;;;;;9.74;100.00;97876.00;4927319;29;20475;-69
2021/12/30 03:03:25;;;;;;;1.10;1.10;;;;;;;9.74;100.00;97878.66;4926031;29;20218;-70
2021/12/30 03:05:58;;;;;;;1.77;1.67;;;;;;;9.76;100.00;97878.47;4926203;29;20236;-70
2021/12/30 03:08:28;;;;;;;1.00;1.00;;;;;;;9.80;100.00;97893.88;4924691;29;20306;-69
2021/12/30 03:10:57;;;;;;;1.20;1.20;;;;;;;9.75;100.00;97888.25;4931553;29;20226;-71
2021/12/30 03:13:30;;;;;;;1.03;1.03;;;;;;;9.78;100.00;97887.94;4932552;29;20560;-71
2021/12/30 03:16:02;;;;;;;1.17;1.17;;;;;;;9.68;100.00;97888.06;4929232;29;20204;-71
2021/12/30 03:18:30;;;;;;;1.20;1.20;;;;;;;9.63;100.00;97898.28;4926977;29;20226;-71
2021/12/30 03:20:59;;;;;;;1.30;1.20;;;;;;;9.58;100.00;97902.41;4934434;29;20203;-71
2021/12/30 03:23:28;;;;;;;1.50;1.13;;;;;;;9.52;100.00;97907.34;4930383;29;20211;-71
2021/12/30 03:25:56;;;;;;;1.23;1.23;;;;;;;9.48;100.00;97923.72;4930481;29;20235;-71
2021/12/30 03:28:24;;;;;;;2.20;1.90;;;;;;;9.49;100.00;97926.19;4928950;29;20200;-72
2021/12/30 03:30:53;;;;;;;2.00;1.90;;;;;;;9.46;100.00;97918.56;4933534;29;20230;-71
2021/12/30 03:33:22;;;;;;;0.80;0.80;;;;;;;9.43;100.00;97920.69;4929515;29;20203;-71
2021/12/30 03:35:50;;;;;;;1.23;1.23;;;;;;;9.38;100.00;97927.28;4926512;29;20211;-72
2021/12/30 03:38:18;;;;;;;0.97;0.97;;;;;;;9.38;100.00;97935.22;4930774;29;20263;-71
2021/12/30 03:40:47;;;;;;;0.90;0.90;;;;;;;9.43;100.00;97945.34;4929206;29;20333;-71
2021/12/30 03:43:15;;;;;;;3.47;1.30;;;;;;;9.41;100.00;97956.06;4930959;29;20203;-72
2021/12/30 03:45:44;;;;;;;1.37;1.13;;;;;;;9.40;100.00;97957.06;4925006;29;20299;-71
2021/12/30 03:48:12;;;;;;;1.40;1.30;;;;;;;9.56;100.00;97958.94;4933531;29;20222;-71
2021/12/30 03:50:44;;;;;;;1.03;1.03;;;;;;;9.62;100.00;97964.59;4930184;29;20683;-71
2021/12/30 03:53:14;;;;;;;0.90;0.90;;;;;;;9.58;100.00;97963.25;4932596;29;20769;-72
2021/12/30 03:55:42;;;;;;;1.33;1.23;;;;;;;9.62;100.00;97967.22;4931276;29;20211;-71
2021/12/30 03:58:11;;;;;;;0.83;0.83;;;;;;;9.69;100.00;97963.00;4929921;29;20788;-71
2021/12/30 04:00:40;;;;;;;1.00;0.93;;;;;;;9.58;100.00;97965.91;4925923;29;20215;-71
2021/12/30 04:03:08;;;;;;;0.90;0.90;;;;;;;9.55;100.00;97969.72;4929246;29;20640;-71
2021/12/30 04:05:36;;;;;;;1.03;1.03;;;;;;;9.58;100.00;97973.84;4929513;29;20239;-71
2021/12/30 04:08:07;;;;;;;1.30;1.20;;;;;;;9.60;100.00;97977.16;4926437;29;20207;-71
2021/12/30 04:10:35;;;;;;;1.60;1.20;;;;;;;9.54;100.00;97974.16;4925647;29;20204;-71
2021/12/30 04:13:04;;;;;;;1.23;1.23;;;;;;;9.50;100.00;97972.00;4929498;29;20214;-71
2021/12/30 04:15:33;;;;;;;1.33;1.23;;;;;;;9.43;100.00;97987.66;4927793;29;21439;-70
2021/12/30 04:18:01;;;;;;;1.70;1.37;;;;;;;9.49;100.00;97980.91;4932527;28;20246;-70
2021/12/30 04:20:29;;;;;;;1.20;1.10;;;;;;;9.41;100.00;97987.00;4924801;29;20231;-69
2021/12/30 04:22:57;;;;;;;1.13;1.13;;;;;;;9.44;100.00;98007.84;4926818;29;20234;-69
2021/12/30 04:25:26;;;;;;;1.10;1.10;;;;;;;9.53;100.00;97998.94;4930000;29;20493;-70
2021/12/30 04:27:54;;;;;;;1.47;1.37;;;;;;;9.51;100.00;98008.03;4928385;29;20211;-69
2021/12/30 04:30:22;;;;;;;2.07;1.00;;;;;;;9.44;100.00;98009.63;4931735;29;20238;-70
2021/12/30 04:32:51;;;;;;;1.00;1.00;;;;;;;9.35;100.00;98006.94;4928378;29;20219;-71
2021/12/30 04:35:19;;;;;;;1.10;1.10;;;;;;;9.32;100.00;98012.56;4932183;29;20217;-71
2021/12/30 04:37:47;;;;;;;1.10;1.10;;;;;;;9.31;100.00;98018.00;4932818;29;20271;-69
2021/12/30 04:40:16;;;;;;;2.23;1.30;;;;;;;9.24;100.00;98005.38;4929772;29;20239;-69
2021/12/30 04:42:44;;;;;;;1.20;1.20;;;;;;;9.19;100.00;98010.31;4926795;29;20219;-70
2021/12/30 04:45:13;;;;;;;2.77;1.30;;;;;;;9.15;100.00;98024.00;4926807;29;21065;-70
2021/12/30 04:47:41;;;;;;;1.40;1.30;;;;;;;9.16;100.00;98030.97;4928793;29;20233;-70
2021/12/30 04:50:12;;;;;;;1.40;1.33;;;;;;;9.10;100.00;98032.41;4929815;29;20719;-70
2021/12/30 04:52:41;;;;;;;1.30;1.27;;;;;;;9.14;100.00;98041.66;4929592;29;20212;-70
2021/12/30 04:55:10;;;;;;;1.03;1.03;;;;;;;9.10;100.00;98042.97;4938208;29;20218;-70
2021/12/30 04:57:38;;;;;;;1.53;1.43;;;;;;;9.04;100.00;98054.16;4932965;29;20220;-69
2021/12/30 05:00:10;;;;;;;4.10;1.53;;;;;;;9.08;100.00;98069.53;4934604;29;20668;-70
2021/12/30 05:03:00;;;;;;;3.30;1.30;;;;;;;9.02;100.00;98069.34;4932231;29;20549;-69
2021/12/30 05:05:30;;;;;;;3.07;1.77;;;;;;;9.06;100.00;98068.06;4931665;29;20935;-70
2021/12/30 05:07:58;;;;;;;1.60;1.50;;;;;;;9.17;100.00;98072.28;4929718;29;20243;-69
2021/12/30 05:10:26;;;;;;;2.93;1.90;;;;;;;9.23;100.00;98069.00;4932446;29;20731;-69
2021/12/30 05:12:54;;;;;;;1.33;1.23;;;;;;;9.20;100.00;98072.78;4932720;29;20215;-68
2021/12/30 05:15:22;;;;;;;2.00;1.37;;;;;;;9.19;100.00;98065.84;4931912;29;20811;-69
2021/12/30 05:17:50;;;;;;;2.17;1.20;;;;;;;9.23;100.00;98063.72;4930678;29;20212;-69
2021/12/30 05:20:18;;;;;;;4.20;1.80;;;;;;;9.26;100.00;98069.53;4928700;29;20223;-70
2021/12/30 05:22:48;;;;;;;3.17;1.53;;;;;;;9.30;100.00;98070.06;4930319;29;20699;-69
2021/12/30 05:25:18;;;;;;;3.63;1.30;;;;;;;9.23;100.00;98076.94;4935021;29;20211;-69
2021/12/30 05:27:46;;;;;;;2.17;1.73;;;;;;;9.25;100.00;98077.63;4931201;29;20731;-69
2021/12/30 05:30:14;;;;;;;2.20;1.27;;;;;;;9.23;100.00;98080.41;4932140;29;20264;-68
2021/12/30 05:32:43;;;;;;;2.63;1.33;;;;;;;9.28;100.00;98069.38;4937346;29;20210;-70
2021/12/30 05:35:12;;;;;;;3.00;1.47;;;;;;;9.18;100.00;98064.19;4933124;29;20207;-70
2021/12/30 05:37:41;;;;;;;3.40;1.33;;;;;;;9.17;100.00;98073.09;4927438;29;20677;-69
2021/12/30 05:40:14;;;;;;;1.40;1.07;;;;;;;9.33;100.00;98079.50;4933228;29;20258;-69
2021/12/30 05:42:42;;;;;;;1.63;1.13;;;;;;;9.32;100.00;98086.59;4931307;29;20208;-69
2021/12/30 05:45:11;;;;;;;3.10;2.00;;;;;;;9.31;100.00;98094.69;4928895;29;20211;-69
2021/12/30 05:47:41;;;;;;;2.90;2.17;;;;;;;9.27;100.00;98100.28;4928079;29;20232;-70
2021/12/30 05:50:10;;;;;;;3.20;1.73;;;;;;;9.41;100.00;98098.06;4932556;29;20224;-69
2021/12/30 05:52:38;;;;;;;1.43;1.30;;;;;;;9.43;100.00;98103.19;4933560;29;20235;-69
2021/12/30 05:55:07;;;;;;;3.83;1.60;;;;;;;9.36;100.00;98122.34;4928381;29;20212;-69
2021/12/30 05:57:36;;;;;;;1.17;1.17;;;;;;;9.35;100.00;98125.16;4929297;29;20207;-69
2021/12/30 06:00:05;;;;;;;1.30;1.20;;;;;;;9.40;100.00;98130.81;4929373;29;20244;-70
2021/12/30 06:02:33;;;;;;;2.20;1.60;;;;;;;9.41;100.00;98135.09;4932485;29;20569;-70
2021/12/30 06:05:02;;;;;;;1.67;1.27;;;;;;;9.45;100.00;98136.47;4931135;29;20222;-69
2021/12/30 06:07:30;;;;;;;2.87;1.87;;;;;;;9.45;100.00;98131.16;4930249;29;20227;-70
2021/12/30 06:09:58;;;;;;;2.60;1.37;;;;;;;9.37;100.00;98139.88;4931985;29;20228;-75
2021/12/30 06:12:26;;;;;;;2.07;1.03;;;;;;;9.43;100.00;98137.59;4933650;29;20278;-76
2021/12/30 06:14:55;;;;;;;1.23;1.10;;;;;;;9.53;100.00;98138.34;4930387;29;20208;-70
2021/12/30 06:17:23;;;;;;;1.17;1.17;;;;;;;9.70;100.00;98126.88;4931821;29;20584;-70
2021/12/30 06:19:51;;;;;;;1.27;1.23;;;;;;;9.63;100.00;98132.94;4930330;29;20703;-70
2021/12/30 06:22:19;;;;;;;2.13;1.80;;;;;;;9.74;100.00;98130.06;4931887;29;20218;-70
2021/12/30 06:24:47;;;;;;;2.30;1.50;;;;;;;9.69;100.00;98122.56;4931657;29;20216;-70
2021/12/30 06:27:15;;;;;;;4.23;1.53;;;;;;;9.63;100.00;98127.66;4932259;29;20231;-69
2021/12/30 06:29:43;;;;;;;1.87;1.33;;;;;;;9.69;100.00;98127.06;4938420;29;20230;-70
2021/12/30 06:32:12;;;;;;;2.93;1.70;;;;;;;9.59;100.00;98126.31;4931117;29;20234;-69
2021/12/30 06:34:40;;;;;;;6.20;2.17;;;;;;;9.53;100.00;98128.59;4931372;29;20478;-70
2021/12/30 06:37:09;;;;;;;3.23;1.47;;;;;;;9.41;100.00;98124.53;4930258;29;20626;-70
2021/12/30 06:39:37;;;;;;;3.10;1.40;;;;;;;9.32;100.00;98130.75;4929680;29;20258;-68
2021/12/30 06:42:05;;;;;;;4.37;1.50;;;;;;;9.28;100.00;98124.91;4931112;29;20220;-68
2021/12/30 06:44:33;;;;;;;2.07;1.70;;;;;;;9.22;100.00;98134.28;4930556;29;20222;-69
2021/12/30 06:47:03;;;;;;;2.90;1.83;;;;;;;9.17;100.00;98131.25;4928008;29;20235;-69
2021/12/30 06:49:36;;;;;;;4.13;1.93;;;;;;;9.12;100.00;98137.03;4937398;29;20231;-69
2021/12/30 06:52:06;;;;;;;1.80;1.67;;;;;;;9.11;100.00;98150.38;4928998;29;20208;-69
2021/12/30 06:54:34;;;;;;;2.77;2.57;;;;;;;9.07;100.00;98154.31;4928066;29;20293;-70
2021/12/30 06:57:03;;;;;;;2.50;2.30;;;;;;;9.13;100.00;98151.06;4928408;29;20577;-67
2021/12/30 06:59:31;;;;;;;5.03;2.63;;;;;;;9.11;100.00;98151.22;4928404;29;20232;-69
2021/12/30 07:01:59;;;;;;;3.77;2.50;;;;;;;9.12;100.00;98149.41;4933173;29;20219;-69
2021/12/30 07:04:28;;;;;;;2.50;2.30;;;;;;;9.09;100.00;98147.91;4928497;29;20292;-69
2021/12/30 07:06:57;;;;;;;2.40;1.93;;;;;;;9.05;100.00;98157.09;4931091;29;20437;-70
2021/12/30 07:09:25;;;;;;;2.73;2.20;;;;;;;9.05;100.00;98164.19;4928689;29;20679;-70
2021/12/30 07:11:54;;;;;;;4.20;2.37;;;;;;;9.02;100.00;98159.22;4925853;29;20211;-68
2021/12/30 07:14:23;;;;;;;4.10;2.20;;;;;;;9.02;100.00;98157.38;4929938;29;20207;-70
2021/12/30 07:16:51;;;;;;;2.33;2.13;;;;;;;9.03;100.00;98158.25;4925294;29;20215;-70
2021/12/30 07:19:19;;;;;;;2.80;1.80;;;;;;;9.02;100.00;98157.38;4926327;28;20224;-68
2021/12/30 07:21:50;;;;;;;2.87;2.50;;;;;;;9.01;100.00;98158.38;4928610;29;20215;-70
2021/12/30 07:24:20;;;;;;;2.93;2.70;;;;;;;9.02;100.00;98165.31;4934000;29;20231;-69
2021/12/30 07:26:48;;;;;;;5.90;3.00;;;;;;;9.03;100.00;98171.47;4924920;29;20267;-69
2021/12/30 07:29:16;;;;;;;4.63;2.70;;;;;;;9.12;100.00;98171.41;4929478;29;20231;-69
2021/12/30 07:31:44;;;;;;;5.10;2.83;;;;;;;9.21;100.00;98182.03;4931984;29;20563;-69
2021/12/30 07:34:12;;;;;;;8.47;3.10;;;;;;;9.15;100.00;98180.00;4927018;29;20215;-69
2021/12/30 07:36:40;;;;;;;3.97;2.90;;;;;;;9.15;100.00;98180.81;4927697;29;20227;-69
2021/12/30 07:39:09;;;;;;;3.97;2.63;;;;;;;9.19;100.00;98192.75;4928999;29;20236;-69
2021/12/30 07:41:38;;;;;;;3.97;2.70;;;;;;;9.15;100.00;98191.41;4928025;29;20215;-70
2021/12/30 07:44:06;;;;;;;7.70;3.30;;;;;;;9.20;100.00;98193.59;4925736;29;20234;-69
2021/12/30 07:46:34;;;;;;;3.73;3.20;;;;;;;9.06;100.00;98190.47;4932433;29;20207;-69
2021/12/30 07:49:02;;;;;;;2.80;2.60;;;;;;;9.00;100.00;98196.38;4928461;29;20239;-68
2021/12/30 07:51:30;;;;;;;3.60;3.23;;;;;;;9.00;100.00;98190.25;4924157;29;20215;-69
2021/12/30 07:53:58;;;;;;;4.57;3.20;;;;;;;8.97;100.00;98192.22;4929111;29;20222;-69
2021/12/30 07:56:26;;;;;;;4.00;3.20;;;;;;;8.96;100.00;98192.34;4928673;29;20212;-68
2021/12/30 07:58:58;;;;;;;5.03;2.77;;;;;;;8.96;100.00;98198.50;4927475;29;20262;-69
2021/12/30 08:01:26;;;;;;;6.00;2.77;;;;;;;8.99;100.00;98207.91;4928511;29;20642;-70
2021/12/30 08:03:54;;;;;;;3.17;2.83;;;;;;;9.05;100.00;98209.97;4931346;29;20595;-69
2021/12/30 08:06:26;;;;;;;3.00;2.80;;;;;;;9.06;100.00;98211.63;4930929;29;21121;-70
2021/12/30 08:08:54;;;;;;;3.70;3.33;;;;;;;9.11;100.00;98219.13;4923173;29;20231;-69
2021/12/30 08:11:22;;;;;;;3.63;3.33;;;;;;;9.25;100.00;98225.72;4928813;29;21753;-69
2021/12/30 08:13:50;;;;;;;3.20;2.90;;;;;;;9.24;100.00;98221.41;4928851;29;20683;-69
2021/12/30 08:16:20;;;;;;;4.90;3.20;;;;;;;9.22;100.00;98216.25;4927059;29;20218;-69
2021/12/30 08:18:48;;;;;;;5.10;3.17;;;;;;;9.29;100.00;98210.38;4926865;29;20228;-69
2021/12/30 08:21:15;;;;;;;6.83;3.50;;;;;;;9.25;100.00;98212.50;4926181;29;20216;-70
2021/12/30 08:23:43;;;;;;;7.80;3.23;;;;;;;9.31;100.00;98208.44;4933399;29;20208;-70
2021/12/30 08:26:11;;;;;;;3.93;3.50;;;;;;;9.31;100.00;98203.13;4927198;29;20211;-70
2021/12/30 08:28:40;;;;;;;3.17;2.97;;;;;;;9.39;100.00;98197.91;4927471;29;20596;-69
2021/12/30 08:31:08;;;;;;;5.93;3.43;;;;;;;9.38;100.00;98188.31;4927751;29;20211;-69
2021/12/30 08:33:38;;;;;;;3.50;3.30;;;;;;;9.33;100.00;98180.00;4928494;29;20684;-69
2021/12/30 08:36:06;;;;;;;3.13;2.60;;;;;;;9.30;100.00;98185.59;4929074;29;20219;-69
2021/12/30 08:38:34;;;;;;;2.57;2.37;;;;;;;9.31;100.00;98195.19;4927125;29;20754;-69
2021/12/30 08:41:02;;;;;;;3.20;2.90;;;;;;;9.37;100.00;98202.53;4926632;29;20219;-68
2021/12/30 08:43:30;;;;;;;6.37;4.93;;;;;;;9.41;100.00;98198.59;4928459;29;20223;-69
2021/12/30 08:45:58;;;;;;;2.70;2.50;;;;;;;9.50;100.00;98200.31;4925321;29;20677;-69
2021/12/30 08:48:26;;;;;;;3.00;2.70;;;;;;;9.55;100.00;98200.69;4931962;29;20235;-69
2021/12/30 08:50:56;;;;;;;4.30;3.83;;;;;;;9.54;100.00;98199.03;4924475;29;20211;-68
2021/12/30 08:53:25;;;;;;;4.00;2.97;;;;;;;9.70;100.00;98211.56;4929102;29;20231;-70
2021/12/30 08:55:53;;;;;;;3.93;2.57;;;;;;;9.76;100.00;98217.22;4924406;29;20482;-69
2021/12/30 08:58:21;;;;;;;1.90;1.80;;;;;;;9.84;100.00;98222.56;4928101;29;20325;-69
2021/12/30 09:00:49;;;;;;;2.63;2.47;;;;;;;9.93;100.00;98223.47;4928406;29;20219;-69
2021/12/30 09:03:18;;;;;;;3.83;3.27;;;;;;;9.89;100.00;98222.13;4926535;29;20497;-69
2021/12/30 09:05:46;;;;;;;1.50;1.40;;;;;;;9.98;100.00;98214.09;4928409;29;20234;-69
2021/12/30 09:08:15;;;;;;;2.27;1.90;;;;;;;10.01;100.00;98228.81;4926157;29;20211;-69
2021/12/30 09:10:45;;;;;;;0.70;0.70;;;;;;;10.08;100.00;98229.06;4925864;29;20230;-69
2021/12/30 09:13:15;;;;;;;6.10;3.17;;;;;;;10.19;100.00;98220.03;4926257;29;20311;-69
2021/12/30 09:15:43;;;;;;;0.97;0.97;;;;;;;10.19;100.00;98230.63;4931800;29;20212;-70
2021/12/30 09:18:12;;;;;;;3.97;3.63;;;;;;;10.27;100.00;98225.38;4927517;29;20208;-69
2021/12/30 09:20:41;;;;;;;5.90;3.80;;;;;;;10.31;100.00;98220.59;4930295;29;20222;-69
2021/12/30 09:23:11;;;;;;;1.37;1.27;;;;;;;10.34;100.00;98218.44;4930652;29;20585;-69
2021/12/30 09:25:41;;;;;;;1.00;1.00;;;;;;;10.34;100.00;98225.56;4930471;29;20412;-69
2021/12/30 09:28:11;;;;;;;0.60;0.60;;;;;;;10.36;100.00;98224.41;4928983;29;20557;-68
2021/12/30 09:30:40;;;;;;;7.03;2.97;;;;;;;10.42;100.00;98233.59;4928780;29;20212;-69
2021/12/30 09:33:08;;;;;;;8.10;4.27;;;;;;;10.38;100.00;98226.94;4928596;29;20220;-69
2021/12/30 09:35:36;;;;;;;0.90;0.83;;;;;;;10.44;100.00;98236.09;4933497;29;20226;-69
2021/12/30 09:38:04;;;;;;;2.10;0.90;;;;;;;10.41;100.00;98242.53;4925615;29;20212;-69
2021/12/30 09:40:32;;;;;;;0.63;0.63;;;;;;;10.47;100.00;98227.84;4930429;28;20219;-68
2021/12/30 09:43:04;;;;;;;0.80;0.77;;;;;;;10.47;100.00;98230.50;4927143;29;20208;-69
2021/12/30 09:45:36;;;;;;;2.40;1.27;;;;;;;10.46;100.00;98234.13;4930073;29;20214;-69
2021/12/30 09:48:06;;;;;;;2.00;1.90;;;;;;;10.50;100.00;98233.63;4933693;29;20255;-68
2021/12/30 09:50:37;;;;;;;5.40;4.30;;;;;;;10.55;100.00;98244.59;4928158;29;20235;-69
2021/12/30 09:53:06;;;;;;;9.13;6.33;;;;;;;10.57;100.00;98239.16;4933140;29;20210;-68
2021/12/30 09:55:35;;;;;;;0.97;0.97;;;;;;;10.58;100.00;98243.47;4930788;29;20207;-69
2021/12/30 09:58:05;;;;;;;14.27;9.03;;;;;;;10.61;100.00;98244.97;4931417;29;20218;-70
2021/12/30 10:00:33;;;;;;;1.60;1.23;;;;;;;10.61;100.00;98250.28;4928251;29;20204;-70
2021/12/30 10:03:01;;;;;;;1.17;1.17;;;;;;;10.62;100.00;98250.09;4925561;29;20216;-69
2021/12/30 10:05:31;;;;;;;5.03;2.87;;;;;;;10.67;100.00;98257.59;4934314;29;20543;-70
2021/12/30 10:08:16;;;;;;;1.00;1.00;;;;;;;10.73;100.00;98256.09;4928784;29;20211;-70
2021/12/30 10:10:45;;;;;;;1.63;1.27;;;;;;;10.77;100.00;98241.53;4930383;29;21132;-69
2021/12/30 10:13:23;;;;;;;1.33;1.33;;;;;;;10.83;100.00;98255.00;4933719;29;20214;-71
2021/12/30 10:16:00;;;;;;;0.80;0.80;;;;;;;10.87;100.00;98258.19;4936716;28;20215;-70
2021/12/30 10:18:43;;;;;;;1.20;1.00;;;;;;;10.83;100.00;98254.19;4934746;29;20238;-71
2021/12/30 10:21:13;;;;;;;1.53;1.20;;;;;;;10.97;100.00;98258.88;4928595;29;20215;-70
2021/12/30 10:23:45;;;;;;;10.63;5.47;;;;;;;10.99;100.00;98264.03;4929077;29;20226;-71
2021/12/30 10:26:13;;;;;;;0.77;0.77;;;;;;;10.98;100.00;98263.19;4927970;29;20215;-71
2021/12/30 10:28:44;;;;;;;1.33;1.23;;;;;;;11.05;100.00;98254.59;4929566;29;20235;-71
2021/12/30 10:31:22;;;;;;;4.13;3.07;;;;;;;11.04;100.00;98267.03;4930053;29;20231;-71
2021/12/30 10:33:53;;;;;;;1.53;1.33;;;;;;;11.08;100.00;98264.88;4928352;29;20255;-71
2021/12/30 10:36:22;;;;;;;3.30;2.83;;;;;;;11.09;100.00;98267.38;4933216;29;20208;-71
2021/12/30 10:38:51;;;;;;;7.57;5.50;;;;;;;11.13;100.00;98255.44;4927540;29;20239;-71
2021/12/30 10:41:22;;;;;;;1.83;1.73;;;;;;;11.19;100.00;98263.75;4930703;29;20608;-71
2021/12/30 10:43:55;;;;;;;1.53;1.10;;;;;;;11.18;100.00;98270.88;4930920;29;20211;-71
2021/12/30 10:46:24;;;;;;;30.53;21.30;;;;;;;11.22;100.00;98274.88;4929558;29;20596;-71
2021/12/30 10:48:58;;;;;;;1.40;1.30;;;;;;;11.27;100.00;98267.25;4925709;29;20234;-70
2021/12/30 10:51:33;;;;;;;2.97;1.53;;;;;;;11.34;100.00;98277.22;4931881;29;20616;-70
2021/12/30 10:54:11;;;;;;;1.00;1.00;;;;;;;11.40;100.00;98279.22;4926956;29;20222;-71
2021/12/30 10:56:40;;;;;;;4.93;4.43;;;;;;;11.42;100.00;98285.19;4930401;29;20633;-69
2021/12/30 10:59:18;;;;;;;1.13;1.13;;;;;;;11.42;100.00;98278.09;4927807;29;20241;-71
2021/12/30 11:01:49;;;;;;;2.27;2.13;;;;;;;11.42;100.00;98271.94;4927320;29;20207;-70
2021/12/30 11:04:18;;;;;;;5.50;4.90;;;;;;;11.49;100.00;98278.25;4926681;29;20295;-70
2021/12/30 11:06:47;;;;;;;2.43;2.33;;;;;;;11.51;100.00;98270.94;4930176;29;20227;-70
2021/12/30 11:09:18;;;;;;;0.93;0.93;;;;;;;11.56;100.00;98281.94;4925821;29;20295;-71
2021/12/30 11:11:51;;;;;;;2.57;2.37;;;;;;;11.53;100.00;98284.88;4927975;29;20216;-70
2021/12/30 11:14:23;;;;;;;1.80;1.70;;;;;;;11.52;100.00;98279.75;4928892;29;20226;-71
2021/12/30 11:17:04;;;;;;;1.40;1.40;;;;;;;11.53;100.00;98278.75;4927058;29;20208;-71
2021/12/30 11:19:35;;;;;;;1.03;1.03;;;;;;;11.58;100.00;98274.63;4928334;29;20242;-71
2021/12/30 11:22:06;;;;;;;2.50;2.30;;;;;;;11.58;100.00;98279.09;4926699;29;20262;-71
2021/12/30 11:24:35;;;;;;;4.90;4.33;;;;;;;11.62;100.00;98274.31;4930488;29;20203;-71
2021/12/30 11:27:05;;;;;;;3.10;2.80;;;;;;;11.62;100.00;98279.59;4929672;29;20212;-71
2021/12/30 11:29:37;;;;;;;1.27;1.10;;;;;;;11.61;100.00;98273.44;4926550;29;20246;-70
2021/12/30 11:32:07;;;;;;;2.00;1.90;;;;;;;11.64;100.00;98280.28;4927562;29;20211;-70
2021/12/30 11:34:35;;;;;;;3.60;3.20;;;;;;;11.63;100.00;98282.09;4938094;29;20291;-71
2021/12/30 11:37:04;;;;;;;6.17;4.27;;;;;;;11.69;100.00;98280.59;4928438;29;20660;-70
2021/12/30 11:39:32;;;;;;;2.73;2.00;;;;;;;11.75;100.00;98293.22;4928440;29;20247;-71
2021/12/30 11:42:05;;;;;;;21.07;10.83;;;;;;;11.74;100.00;98286.25;4928475;29;20624;-70